createdAt,value
2018-11-20T00:00:48.021Z,9.25
2018-11-20T00:03:35.228Z,8.23
2018-11-20T00:06:45.491Z,7.45
2018-11-20T00:09:46.515Z,9.75
2018-11-20T00:12:43.172Z,7.53
2018-11-20T00:15:35.928Z,10.03
2018-11-20T00:18:23.383Z,8.43
2018-11-20T00:21:18.766Z,8.45
2018-11-20T00:24:14.732Z,7.25
2018-11-20T00:27:16.484Z,8.88
2018-11-20T00:30:15.386Z,7.50
2018-11-20T00:33:04.083Z,7.30
2018-11-20T00:35:59.346Z,8.78
2018-11-20T00:38:55.364Z,7.72
2018-11-20T00:41:41.544Z,7.80
2018-11-20T00:44:45.953Z,7.95
2018-11-20T00:47:44.885Z,7.30
2018-11-20T00:50:43.399Z,9.10
2018-11-20T00:53:37.032Z,7.80
2018-11-20T00:57:11.225Z,11.22
2018-11-20T01:00:06.810Z,14.30
2018-11-20T01:03:09.610Z,9.75
2018-11-20T01:06:05.732Z,6.53
2018-11-20T01:08:49.953Z,10.43
2018-11-20T01:11:57.742Z,8.85
2018-11-20T01:14:58.814Z,14.00
2018-11-20T01:17:49.988Z,17.98
2018-11-20T01:20:56.991Z,8.33
2018-11-20T01:23:51.668Z,12.23
2018-11-20T01:26:49.967Z,9.85
2018-11-20T01:29:40.608Z,8.10
2018-11-20T01:32:54.719Z,9.37
2018-11-20T01:35:49.073Z,12.15
2018-11-20T01:38:44.212Z,8.78
2018-11-20T01:41:54.766Z,10.00
2018-11-20T01:44:56.784Z,8.00
2018-11-20T01:48:01.356Z,7.33
2018-11-20T01:51:03.040Z,7.28
2018-11-20T01:53:58.305Z,9.25
2018-11-20T01:56:52.929Z,7.87
2018-11-20T01:59:46.870Z,8.05
2018-11-20T02:02:55.018Z,11.40
2018-11-20T02:05:49.203Z,7.55
2018-11-20T02:08:47.782Z,8.13
2018-11-20T02:11:49.590Z,11.75
2018-11-20T02:14:51.729Z,8.75
2018-11-20T02:18:05.871Z,7.42
2018-11-20T02:21:11.118Z,8.63
2018-11-20T02:24:21.574Z,7.85
2018-11-20T02:27:22.798Z,7.03
2018-11-20T02:30:26.731Z,11.18
2018-11-20T02:33:37.417Z,13.85
2018-11-20T02:36:27.961Z,14.28
2018-11-20T02:39:37.930Z,8.98
2018-11-20T02:42:40.235Z,9.53
2018-11-20T02:45:35.453Z,10.28
2018-11-20T02:48:31.546Z,13.40
2018-11-20T02:51:25.281Z,11.53
2018-11-20T02:54:30.690Z,12.25
2018-11-20T02:57:24.378Z,10.05
2018-11-20T03:00:22.961Z,11.93
2018-11-20T03:03:13.970Z,11.15
2018-11-20T03:06:08.009Z,9.55
2018-11-20T03:09:01.628Z,13.00
2018-11-20T03:12:13.011Z,10.08
2018-11-20T03:15:07.388Z,8.63
2018-11-20T03:18:11.940Z,8.80
2018-11-20T03:21:05.787Z,9.05
2018-11-20T03:24:01.519Z,10.58
2018-11-20T03:26:59.533Z,9.28
2018-11-20T03:30:25.028Z,12.40
2018-11-20T03:33:15.091Z,14.90
2018-11-20T03:36:29.636Z,15.05
2018-11-20T03:39:29.928Z,13.05
2018-11-20T03:42:24.375Z,11.93
2018-11-20T03:45:18.648Z,15.58
2018-11-20T03:48:13.147Z,12.90
2018-11-20T03:51:21.866Z,8.73
2018-11-20T03:54:32.474Z,12.18
2018-11-20T03:57:27.413Z,13.63
2018-11-20T04:00:25.173Z,12.25
2018-11-20T04:03:30.447Z,11.25
2018-11-20T04:06:24.653Z,10.65
2018-11-20T04:09:20.336Z,10.55
2018-11-20T04:12:31.206Z,15.38
2018-11-20T04:15:39.238Z,12.73
2018-11-20T04:18:40.023Z,12.82
2018-11-20T04:21:34.155Z,14.60
2018-11-20T04:24:32.517Z,11.73
2018-11-20T04:27:28.367Z,11.73
2018-11-20T04:30:56.529Z,12.05
2018-11-20T04:33:59.841Z,12.13
2018-11-20T04:36:59.247Z,13.00
2018-11-20T04:39:57.573Z,15.43
2018-11-20T04:42:59.383Z,12.55
2018-11-20T04:45:54.486Z,12.78
2018-11-20T04:48:44.378Z,17.62
2018-11-20T04:51:31.042Z,15.48
2018-11-20T04:54:24.465Z,10.80
2018-11-20T04:57:28.745Z,16.93
2018-11-20T05:00:38.008Z,12.60
2018-11-20T05:03:45.749Z,14.45
2018-11-20T05:06:43.806Z,12.00
2018-11-20T05:09:45.198Z,11.78
2018-11-20T05:12:43.436Z,12.47
2018-11-20T05:15:51.704Z,13.32
2018-11-20T05:18:50.188Z,10.23
2018-11-20T05:21:48.215Z,11.78
2018-11-20T05:24:42.251Z,10.13
2018-11-20T05:27:46.733Z,10.28
2018-11-20T05:30:46.577Z,10.75
2018-11-20T05:33:41.366Z,13.75
2018-11-20T05:36:28.970Z,12.13
2018-11-20T05:39:26.544Z,10.32
2018-11-20T05:42:28.058Z,9.30
2018-11-20T05:45:32.273Z,10.93
2018-11-20T05:48:23.322Z,13.32
2018-11-20T05:51:37.101Z,13.25
2018-11-20T05:54:48.047Z,11.97
2018-11-20T05:57:35.091Z,13.80
2018-11-20T06:00:29.891Z,13.68
2018-11-20T06:03:27.547Z,11.60
2018-11-20T06:06:40.903Z,10.90
2018-11-20T06:09:35.294Z,11.10
2018-11-20T06:12:30.152Z,11.80
2018-11-20T06:15:24.595Z,18.62
2018-11-20T06:18:28.365Z,18.02
2018-11-20T06:21:42.926Z,18.35
2018-11-20T06:24:47.397Z,16.15
2018-11-20T06:27:51.717Z,19.30
2018-11-20T06:30:46.072Z,16.27
2018-11-20T06:33:56.597Z,16.30
2018-11-20T06:37:10.370Z,12.23
2018-11-20T06:40:09.717Z,14.60
2018-11-20T06:43:14.303Z,12.53
2018-11-20T06:46:10.398Z,19.20
2018-11-20T06:49:05.827Z,21.33
2018-11-20T06:51:59.472Z,20.68
2018-11-20T06:55:07.059Z,14.97
2018-11-20T06:58:01.269Z,13.53
2018-11-20T07:01:15.416Z,20.08
2018-11-20T07:04:09.276Z,15.47
2018-11-20T07:07:03.659Z,13.78
2018-11-20T07:10:08.241Z,14.58
2018-11-20T07:13:03.043Z,16.25
2018-11-20T07:15:57.242Z,15.93
2018-11-20T07:18:51.354Z,13.97
2018-11-20T07:21:51.929Z,13.48
2018-11-20T07:24:51.585Z,14.18
2018-11-20T07:27:53.152Z,13.70
2018-11-20T07:30:49.295Z,13.03
2018-11-20T07:33:47.431Z,12.75
2018-11-20T07:36:46.437Z,12.80
2018-11-20T07:39:51.152Z,12.90
2018-11-20T07:42:55.586Z,13.48
2018-11-20T07:46:02.689Z,11.20
2018-11-20T07:49:03.591Z,15.10
2018-11-20T07:52:02.719Z,12.83
2018-11-20T07:54:55.228Z,11.63
2018-11-20T07:57:51.539Z,12.95
2018-11-20T08:00:46.763Z,13.75
2018-11-20T08:03:35.560Z,12.63
2018-11-20T08:06:30.036Z,12.23
2018-11-20T08:09:37.253Z,12.53
2018-11-20T08:12:23.817Z,11.08
2018-11-20T08:15:25.519Z,14.10
2018-11-20T08:18:11.461Z,18.42
2018-11-20T08:20:54.700Z,15.70
2018-11-20T08:23:48.742Z,13.40
2018-11-20T08:26:47.397Z,11.25
2018-11-20T08:29:41.482Z,11.65
2018-11-20T08:32:51.842Z,14.30
2018-11-20T08:35:42.354Z,13.53
2018-11-20T08:38:36.178Z,15.28
2018-11-20T08:41:44.490Z,14.27
2018-11-20T08:44:39.179Z,14.53
2018-11-20T08:47:46.798Z,17.65
2018-11-20T08:51:00.594Z,13.62
2018-11-20T08:54:04.339Z,13.83
2018-11-20T08:57:02.602Z,17.15
2018-11-20T08:59:52.948Z,12.73
2018-11-20T09:03:01.041Z,12.13
2018-11-20T09:05:54.635Z,12.40
2018-11-20T09:08:44.775Z,12.47
2018-11-20T09:11:42.894Z,15.30
2018-11-20T09:14:37.751Z,14.70
2018-11-20T09:17:41.950Z,12.03
2018-11-20T09:20:43.661Z,13.40
2018-11-20T09:23:37.554Z,14.55
2018-11-20T09:26:33.025Z,14.43
2018-11-20T09:29:27.957Z,14.10
2018-11-20T09:32:12.995Z,16.95
2018-11-20T09:35:11.115Z,10.82
2018-11-20T09:38:00.021Z,14.35
2018-11-20T09:41:09.521Z,19.07
2018-11-20T09:44:52.944Z,14.00
2018-11-20T09:47:48.712Z,13.65
2018-11-20T09:50:47.761Z,17.65
2018-11-20T09:53:42.354Z,14.00
2018-11-20T09:56:30.364Z,16.40
2018-11-20T09:59:25.414Z,11.40
2018-11-20T10:02:21.074Z,15.28
2018-11-20T10:05:31.514Z,15.35
2018-11-20T10:08:27.511Z,15.90
2018-11-20T10:11:29.870Z,13.43
2018-11-20T10:14:24.197Z,15.13
2018-11-20T10:17:37.237Z,13.75
2018-11-20T10:20:40.347Z,17.05
2018-11-20T10:23:36.511Z,14.13
2018-11-20T10:26:30.995Z,17.27
2018-11-20T10:29:47.694Z,15.35
2018-11-20T10:32:57.222Z,15.03
2018-11-20T10:35:51.529Z,16.73
2018-11-20T10:38:47.200Z,16.52
2018-11-20T10:41:41.669Z,15.15
2018-11-20T10:44:52.165Z,13.40
2018-11-20T10:47:53.701Z,14.38
2018-11-20T10:50:48.185Z,14.55
2018-11-20T10:53:48.969Z,16.12
2018-11-20T10:56:35.788Z,13.48
2018-11-20T10:59:31.141Z,13.60
2018-11-20T11:02:25.274Z,15.03
2018-11-20T11:05:18.822Z,14.73
2018-11-20T11:08:12.123Z,16.27
2018-11-20T11:11:04.776Z,12.82
2018-11-20T11:13:57.005Z,20.37
2018-11-20T11:16:52.251Z,13.28
2018-11-20T11:19:46.871Z,12.40
2018-11-20T11:22:41.030Z,12.45
2018-11-20T11:25:43.069Z,12.60
2018-11-20T11:28:57.137Z,12.55
2018-11-20T11:31:53.466Z,18.20
2018-11-20T11:35:04.141Z,13.00
2018-11-20T11:38:02.539Z,14.58
2018-11-20T11:41:04.004Z,12.03
2018-11-20T11:44:08.334Z,14.80
2018-11-20T11:47:21.941Z,15.03
2018-11-20T11:50:15.792Z,13.60
2018-11-20T11:53:09.275Z,13.53
2018-11-20T11:56:03.233Z,13.25
2018-11-20T11:58:49.049Z,14.33
2018-11-20T12:04:42.428Z,13.28
2018-11-20T12:07:28.169Z,12.90
2018-11-20T12:10:19.723Z,12.13
2018-11-20T12:16:12.184Z,11.18
2018-11-20T12:19:10.441Z,11.33
2018-11-20T12:22:13.671Z,14.03
2018-11-20T12:25:07.262Z,10.72
2018-11-20T12:27:58.835Z,11.57
2018-11-20T12:30:58.852Z,13.88
2018-11-20T12:34:03.967Z,13.53
2018-11-20T12:36:48.848Z,11.95
2018-11-20T12:39:48.412Z,12.88
2018-11-20T12:42:43.913Z,12.98
2018-11-20T12:45:57.726Z,13.70
2018-11-20T12:48:51.335Z,11.70
2018-11-20T12:51:59.434Z,12.10
2018-11-20T12:55:00.583Z,9.23
2018-11-20T12:57:54.296Z,11.85
2018-11-20T13:00:40.504Z,10.18
2018-11-20T13:03:37.000Z,11.25
2018-11-20T13:06:31.227Z,12.78
2018-11-20T13:09:41.796Z,11.40
2018-11-20T13:12:49.604Z,14.23
2018-11-20T13:15:43.343Z,9.60
2018-11-20T13:18:39.332Z,10.18
2018-11-20T13:21:40.669Z,10.10
2018-11-20T13:24:29.542Z,11.45
2018-11-20T13:27:33.361Z,10.72
2018-11-20T13:30:25.455Z,11.25
2018-11-20T13:33:36.308Z,11.95
2018-11-20T13:36:30.003Z,9.15
2018-11-20T13:39:46.084Z,9.85
2018-11-20T13:42:32.479Z,10.75
2018-11-20T13:45:40.664Z,8.55
2018-11-20T13:48:35.865Z,11.33
2018-11-20T13:51:43.249Z,10.78
2018-11-20T13:54:38.635Z,11.25
2018-11-20T13:57:32.626Z,9.30
2018-11-20T14:00:26.687Z,8.35
2018-11-20T14:03:22.364Z,11.97
2018-11-20T14:06:18.114Z,10.48
2018-11-20T14:09:29.423Z,9.45
2018-11-20T14:12:40.818Z,9.93
2018-11-20T14:15:32.885Z,9.43
2018-11-20T14:18:22.519Z,11.20
2018-11-20T14:21:20.826Z,10.65
2018-11-20T14:24:14.905Z,10.48
2018-11-20T14:27:07.180Z,9.00
2018-11-20T14:30:05.122Z,12.25
2018-11-20T14:32:59.318Z,10.68
2018-11-20T14:36:03.690Z,8.58
2018-11-20T14:38:57.760Z,9.55
2018-11-20T14:41:51.465Z,8.75
2018-11-20T14:44:49.730Z,9.78
2018-11-20T14:47:45.450Z,9.33
2018-11-20T14:50:40.498Z,9.18
2018-11-20T14:53:39.355Z,9.95
2018-11-20T14:56:53.166Z,9.43
2018-11-20T14:59:46.873Z,9.38
2018-11-20T15:02:38.229Z,8.90
2018-11-20T15:05:35.726Z,10.25
2018-11-20T15:08:30.276Z,9.78
2018-11-20T15:11:19.197Z,9.38
2018-11-20T15:14:27.347Z,8.48
2018-11-20T15:17:38.192Z,9.73
2018-11-20T15:20:33.017Z,9.65
2018-11-20T15:23:35.132Z,10.15
2018-11-20T15:26:30.488Z,9.43
2018-11-20T15:29:15.457Z,9.30
2018-11-20T15:32:11.102Z,10.03
2018-11-20T15:34:54.152Z,11.08
2018-11-20T15:37:48.344Z,15.15
2018-11-20T15:40:44.265Z,8.88
2018-11-20T15:43:49.351Z,8.33
2018-11-20T15:46:44.914Z,8.40
2018-11-20T15:49:44.536Z,7.77
2018-11-20T15:52:38.639Z,8.95
2018-11-20T15:55:43.592Z,10.38
2018-11-20T15:58:37.787Z,9.13
2018-11-20T16:01:40.762Z,9.10
2018-11-20T16:04:44.756Z,8.83
2018-11-20T16:07:32.530Z,8.18
2018-11-20T16:10:37.120Z,8.45
2018-11-20T16:13:36.570Z,8.90
2018-11-20T16:16:20.364Z,12.13
2018-11-20T16:19:14.463Z,8.83
2018-11-20T16:22:13.344Z,10.77
2018-11-20T16:25:08.403Z,8.93
2018-11-20T16:28:04.060Z,8.70
2018-11-20T16:30:54.622Z,10.32
2018-11-20T16:34:02.742Z,10.60
2018-11-20T16:36:56.829Z,9.90
2018-11-20T16:39:50.942Z,20.75
2018-11-20T16:42:46.251Z,20.05
2018-11-20T16:45:47.366Z,20.68
2018-11-20T16:48:45.574Z,23.50
2018-11-20T16:51:46.509Z,15.35
2018-11-20T16:55:00.147Z,15.53
2018-11-20T16:58:10.555Z,16.12
2018-11-20T17:01:02.070Z,24.98
2018-11-20T17:03:56.952Z,22.73
2018-11-20T17:07:01.178Z,20.40
2018-11-20T17:09:55.832Z,14.33
2018-11-20T17:12:57.604Z,20.40
2018-11-20T17:15:51.912Z,14.35
2018-11-20T17:18:53.166Z,16.95
2018-11-20T17:21:58.254Z,14.70
2018-11-20T17:25:06.764Z,16.30
2018-11-20T17:28:07.911Z,12.10
2018-11-20T17:31:10.313Z,13.25
2018-11-20T17:34:04.576Z,12.50
2018-11-20T17:37:08.946Z,18.35
2018-11-20T17:40:12.561Z,16.27
2018-11-20T17:43:14.147Z,15.23
2018-11-20T17:46:11.849Z,12.13
2018-11-20T17:49:17.526Z,11.88
2018-11-20T17:52:11.506Z,12.93
2018-11-20T17:55:24.843Z,17.48
2018-11-20T17:58:25.141Z,13.98
2018-11-20T18:01:17.027Z,15.40
2018-11-20T18:04:11.035Z,17.60
2018-11-20T18:07:06.811Z,21.70
2018-11-20T18:10:20.493Z,22.77
2018-11-20T18:13:11.171Z,24.18
2018-11-20T18:16:03.051Z,30.72
2018-11-20T18:18:57.786Z,36.45
2018-11-20T18:21:51.407Z,33.38
2018-11-20T18:24:56.929Z,37.78
2018-11-20T18:27:52.150Z,39.98
2018-11-20T18:30:47.517Z,40.40
2018-11-20T18:33:48.325Z,41.63
2018-11-20T18:36:42.812Z,46.10
2018-11-20T18:39:52.178Z,47.17
2018-11-20T18:42:48.405Z,47.33
2018-11-20T18:45:50.452Z,41.02
2018-11-20T18:48:44.427Z,43.75
2018-11-20T18:51:51.511Z,47.85
2018-11-20T18:54:45.852Z,43.80
2018-11-20T18:57:39.958Z,45.10
2018-11-20T19:00:54.173Z,50.75
2018-11-20T19:03:43.927Z,49.20
2018-11-20T19:06:36.813Z,52.35
2018-11-20T19:09:31.244Z,46.13
2018-11-20T19:12:26.425Z,50.85
2018-11-20T19:15:21.364Z,45.50
2018-11-20T19:18:16.285Z,42.83
2018-11-20T19:21:21.176Z,40.10
2018-11-20T19:24:35.368Z,39.98
2018-11-20T19:27:29.057Z,45.70
2018-11-20T19:30:25.546Z,99.32
2018-11-20T19:33:35.914Z,87.85
2018-11-20T19:36:49.755Z,90.50
2018-11-20T19:39:59.645Z,76.67
2018-11-20T19:42:56.102Z,100.80
2018-11-20T19:45:50.362Z,69.15
2018-11-20T19:48:54.278Z,66.12
2018-11-20T19:51:48.972Z,70.28
2018-11-20T19:54:43.299Z,77.40
2018-11-20T19:57:38.780Z,71.30
2018-11-20T20:00:33.111Z,67.45
2018-11-20T20:03:25.068Z,55.75
2018-11-20T20:06:19.302Z,62.10
2018-11-20T20:09:26.773Z,59.10
2018-11-20T20:12:34.886Z,54.38
2018-11-20T20:15:28.719Z,47.15
2018-11-20T20:18:23.402Z,49.53
2018-11-20T20:21:22.260Z,42.40
2018-11-20T20:24:05.503Z,48.10
2018-11-20T20:26:58.708Z,51.50
2018-11-20T20:29:55.089Z,41.85
2018-11-20T20:32:59.202Z,39.60
2018-11-20T20:35:57.475Z,38.38
2018-11-20T20:38:52.161Z,37.33
2018-11-20T20:41:46.995Z,35.10
2018-11-20T20:44:41.836Z,31.90
2018-11-20T20:47:39.875Z,31.30
2018-11-20T20:50:34.435Z,30.27
2018-11-20T20:53:28.318Z,30.15
2018-11-20T20:56:22.680Z,28.27
2018-11-20T20:59:23.034Z,23.57
2018-11-20T21:02:29.125Z,24.15
2018-11-20T21:05:26.567Z,26.82
2018-11-20T21:08:15.575Z,30.40
2018-11-20T21:11:09.784Z,29.85
2018-11-20T21:14:04.404Z,25.08
2018-11-20T21:17:08.613Z,23.85
2018-11-20T21:20:19.142Z,27.25
2018-11-20T21:23:29.645Z,23.18
2018-11-20T21:27:23.360Z,23.60
2018-11-20T21:30:30.680Z,20.68
2018-11-20T21:33:24.539Z,20.52
2018-11-20T21:36:25.568Z,29.37
2018-11-20T21:39:18.699Z,22.52
2018-11-20T21:42:11.329Z,20.12
2018-11-20T21:45:22.113Z,22.82
2018-11-20T21:48:11.352Z,21.85
2018-11-20T21:51:15.000Z,15.23
2018-11-20T21:54:02.885Z,16.15
2018-11-20T21:57:03.475Z,17.55
2018-11-20T22:00:14.106Z,20.08
2018-11-20T22:03:07.452Z,13.98
2018-11-20T22:06:01.696Z,17.70
2018-11-20T22:08:52.082Z,17.35
2018-11-20T22:11:46.818Z,19.07
2018-11-20T22:14:50.612Z,18.87
2018-11-20T22:17:43.611Z,16.57
2018-11-20T22:20:38.296Z,16.95
2018-11-20T22:23:37.040Z,15.72
2018-11-20T22:26:41.019Z,14.00
2018-11-20T22:29:26.282Z,14.40
2018-11-20T22:32:21.552Z,17.65
2018-11-20T22:35:15.115Z,17.57
2018-11-20T22:38:22.242Z,14.68
2018-11-20T22:41:20.368Z,13.88
2018-11-20T22:44:25.290Z,14.53
2018-11-20T22:47:29.759Z,11.75
2018-11-20T22:50:31.041Z,16.27
2018-11-20T22:53:31.356Z,12.60
2018-11-20T22:56:29.473Z,13.60
2018-11-20T22:59:39.668Z,12.75
2018-11-20T23:02:47.524Z,12.45
2018-11-20T23:05:41.974Z,10.63
2018-11-20T23:08:18.184Z,10.93
2018-11-20T23:10:53.939Z,17.42
2018-11-20T23:13:29.110Z,13.08
2018-11-20T23:16:04.789Z,15.30
2018-11-20T23:18:39.891Z,12.05
2018-11-20T23:21:15.940Z,11.55
2018-11-20T23:23:51.454Z,12.50
2018-11-20T23:26:27.142Z,10.40
2018-11-20T23:29:02.833Z,11.48
2018-11-20T23:31:39.282Z,11.38
2018-11-20T23:34:15.488Z,15.38
2018-11-20T23:36:50.822Z,10.63
2018-11-20T23:39:26.505Z,10.15
2018-11-20T23:42:02.281Z,9.50
2018-11-20T23:44:38.222Z,11.55
2018-11-20T23:47:13.644Z,10.10
2018-11-20T23:49:48.662Z,10.00
2018-11-20T23:52:24.146Z,10.45
2018-11-20T23:55:00.581Z,14.98
2018-11-20T23:57:36.381Z,10.05
